Time;durP1;ratioP1;P1;durP2;ratioP2;P2;SDS_P1;SDS_P2;PMS_P1;PMS_P2;Temp;Humidity;BMP_temperature;BMP_pressure;BME280_temperature;BME280_humidity;BME280_pressure;Samples;Min_cycle;Max_cycle;Signal;HPM_P1;HPM_P2
2024/01/23 00:02:17;;;;;;;0.63;0.30;;;;;;;;;;4978803;28;20898;-89
2024/01/23 00:04:43;;;;;;;1.13;0.70;;;;;;;;;;4993017;28;20438;-88
2024/01/23 00:07:09;;;;;;;1.60;0.85;;;;;;;;;;4977627;28;20434;-88
2024/01/23 00:09:35;;;;;;;0.50;0.50;;;;;;;;;;4992224;28;20189;-89
2024/01/23 00:12:02;;;;;;;2.40;0.83;;;;;;;;;;4994087;28;20454;-89
2024/01/23 00:14:28;;;;;;;4.50;0.65;;;;;;;;;;4991100;28;20497;-90
2024/01/23 00:16:54;;;;;;;0.97;0.40;;;;;;;;;;4978701;28;20195;-90
2024/01/23 00:19:20;;;;;;;1.43;0.80;;;;;;;;;;4977168;28;20461;-89
2024/01/23 00:21:45;;;;;;;1.43;0.70;;;;;;;;;;4978069;28;20461;-89
2024/01/23 00:24:11;;;;;;;0.30;0.30;;;;;;;;;;4995657;28;20434;-87
2024/01/23 00:26:37;;;;;;;2.40;0.50;;;;;;;;;;5008050;28;20489;-87
2024/01/23 00:29:05;;;;;;;0.63;0.63;;;;;;;;;;5000285;28;20520;-90
2024/01/23 00:31:31;;;;;;;0.90;0.90;;;;;;;;;;4979907;28;20470;-89
2024/01/23 00:33:57;;;;;;;1.83;0.83;;;;;;;;;;4975301;28;20238;-89
2024/01/23 00:36:23;;;;;;;18.67;0.80;;;;;;;;;;4990932;28;20429;-88
2024/01/23 00:38:49;;;;;;;3.60;0.87;;;;;;;;;;4976871;28;20458;-90
2024/01/23 00:41:15;;;;;;;0.30;0.30;;;;;;;;;;4973513;28;20489;-92
2024/01/23 00:43:41;;;;;;;3.43;0.43;;;;;;;;;;4976034;28;20454;-91
2024/01/23 00:46:07;;;;;;;10.10;1.40;;;;;;;;;;4983528;28;20457;-88
2024/01/23 00:48:33;;;;;;;0.63;0.50;;;;;;;;;;4990360;28;20196;-89
2024/01/23 00:50:59;;;;;;;0.40;0.40;;;;;;;;;;4990441;28;20466;-89
2024/01/23 00:53:25;;;;;;;0.40;0.40;;;;;;;;;;4988498;28;20203;-90
2024/01/23 00:55:51;;;;;;;0.80;0.80;;;;;;;;;;4980809;28;20438;-88
2024/01/23 00:58:17;;;;;;;0.80;0.63;;;;;;;;;;4989062;28;20585;-88
2024/01/23 01:00:45;;;;;;;0.50;0.40;;;;;;;;;;4974808;28;20746;-86
2024/01/23 01:03:12;;;;;;;1.80;0.55;;;;;;;;;;4974975;28;20479;-87
2024/01/23 01:05:38;;;;;;;0.30;0.30;;;;;;;;;;4998769;28;20187;-86
2024/01/23 01:08:05;;;;;;;3.22;1.30;;;7.00;99.90;;;;;;4995915;28;20187;-88
2024/01/23 01:10:30;;;;;;;0.30;0.30;;;;;;;;;;4980844;28;20218;-87
2024/01/23 01:12:56;;;;;;;0.50;0.40;;;;;;;;;;4979380;28;20632;-91
2024/01/23 01:15:22;;;;;;;1.00;0.57;;;;;;;;;;4999159;28;20442;-88
2024/01/23 01:17:48;;;;;;;4.43;1.35;;;;;;;;;;4980179;28;20445;-86
2024/01/23 01:20:15;;;;;;;0.40;0.30;;;;;;;;;;4977215;28;20195;-88
2024/01/23 01:22:42;;;;;;;0.68;0.43;;;;;;;;;;4990643;28;20442;-89
2024/01/23 01:25:11;;;;;;;2.17;0.95;;;;;;;;;;4980718;28;20578;-88
2024/01/23 01:27:36;;;;;;;1.73;0.57;;;;;;;;;;4983946;28;20187;-90
2024/01/23 01:30:06;;;;;;;1.90;1.13;;;7.20;99.90;;;;;;4974558;28;20202;-86
2024/01/23 01:32:32;;;;;;;0.75;0.50;;;;;;;;;;4993567;28;20509;-88
2024/01/23 01:34:58;;;;;;;0.47;0.47;;;;;;;;;;4981924;28;20199;-89
2024/01/23 01:37:25;;;;;;;1.48;0.90;;;6.30;99.90;;;;;;4997081;28;20445;-86
2024/01/23 01:39:50;;;;;;;0.30;0.30;;;;;;;;;;5011026;28;20200;-88
2024/01/23 01:42:16;;;;;;;0.40;0.30;;;;;;;;;;4983981;28;20284;-88
2024/01/23 01:44:43;;;;;;;3.13;0.40;;;;;;;;;;5011042;28;20453;-91
2024/01/23 01:47:22;;;;;;;0.50;0.40;;;;;;;;;;4983914;28;20468;-92
2024/01/23 01:49:48;;;;;;;0.50;0.40;;;;;;;;;;4998256;28;20183;-90
2024/01/23 01:52:14;;;;;;;1.90;0.70;;;5.40;99.90;;;;;;4982757;28;20198;-92
2024/01/23 01:54:42;;;;;;;0.43;0.38;;;5.60;99.90;;;;;;4999708;28;20198;-91
2024/01/23 01:57:13;;;;;;;1.08;0.98;;;;;;;;;;5008611;28;20231;-92
2024/01/23 01:59:42;;;;;;;1.48;0.82;;;;;;;;;;4999294;28;20187;-91
2024/01/23 02:02:08;;;;;;;0.40;0.30;;;;;;;;;;5009836;28;20203;-91
2024/01/23 02:04:34;;;;;;;0.85;0.45;;;;;;;;;;4991375;28;20194;-92
2024/01/23 02:07:00;;;;;;;0.30;0.30;;;;;;;;;;4993965;28;20198;-90
2024/01/23 02:09:26;;;;;;;5.55;0.55;;;;;;;;;;4986463;28;20191;-93
2024/01/23 02:11:55;;;;;;;5.40;1.13;;;5.50;99.90;;;;;;4993068;28;20202;-91
2024/01/23 02:14:21;;;;;;;1.10;0.43;;;;;;;;;;4995230;28;20476;-91
2024/01/23 02:16:47;;;;;;;0.63;0.32;;;;;;;;;;4981863;28;20663;-91
2024/01/23 02:19:15;;;;;;;0.40;0.37;;;;;;;;;;4983413;28;20179;-92
2024/01/23 02:21:42;;;;;;;0.35;0.35;;;;;;;;;;5000343;28;20446;-91
2024/01/23 02:24:09;;;;;;;2.25;0.50;;;;;;;;;;4983029;28;20687;-92
2024/01/23 02:26:35;;;;;;;1.48;0.30;;;;;;;;;;4981693;28;20197;-91
2024/01/23 02:29:01;;;;;;;7.05;1.20;;;;;;;;;;4999470;28;20418;-91
2024/01/23 02:31:27;;;;;;;4.65;1.02;;;;;;;;;;4983444;28;20290;-92
2024/01/23 02:33:53;;;;;;;0.68;0.68;;;;;;;;;;4978447;28;20226;-91
2024/01/23 02:36:19;;;;;;;0.70;0.65;;;;;;;;;;4980269;28;20186;-90
2024/01/23 02:38:45;;;;;;;11.03;1.60;;;;;;;;;;4977942;28;20186;-91
2024/01/23 02:41:11;;;;;;;0.85;0.82;;;;;;;;;;4986266;28;20496;-91
2024/01/23 02:43:36;;;;;;;25.23;1.40;;;;;;;;;;4978391;28;20191;-92
2024/01/23 02:46:03;;;;;;;0.90;0.60;;;6.00;99.90;;;;;;4981759;28;20438;-92
2024/01/23 02:48:29;;;;;;;0.50;0.40;;;;;;;;;;4992757;28;20446;-92
2024/01/23 02:50:55;;;;;;;2.30;0.63;;;;;;;;;;4996773;28;20203;-93
2024/01/23 02:53:21;;;;;;;6.38;1.00;;;;;;;;;;4985678;28;20478;-91
2024/01/23 02:55:48;;;;;;;3.78;2.40;;;6.20;99.90;;;;;;4975625;28;20298;-91
2024/01/23 02:58:15;;;;;;;13.95;0.88;;;;;;;;;;4975845;28;20501;-92
2024/01/23 03:00:42;;;;;;;2.35;1.13;;;6.30;99.90;;;;;;4979174;28;20211;-91
2024/01/23 03:03:08;;;;;;;2.15;1.65;;;;;;;;;;5003607;28;20392;-92
2024/01/23 03:05:34;;;;;;;1.30;0.85;;;;;;;;;;4997558;28;20195;-91
2024/01/23 03:08:00;;;;;;;1.13;0.60;;;;;;;;;;4993248;28;20761;-92
2024/01/23 03:10:26;;;;;;;3.33;1.25;;;;;;;;;;4974953;28;20218;-92
2024/01/23 03:12:52;;;;;;;10.50;1.10;;;;;;;;;;4977674;28;20203;-91
2024/01/23 03:15:18;;;;;;;3.10;0.77;;;;;;;;;;4978912;28;20430;-92
2024/01/23 03:17:44;;;;;;;0.47;0.47;;;6.50;99.90;;;;;;4985593;28;20461;-91
2024/01/23 03:20:10;;;;;;;9.13;1.57;;;;;;;;;;4992260;28;20198;-91
2024/01/23 03:22:36;;;;;;;10.43;0.93;;;;;;;;;;4977817;28;20265;-92
2024/01/23 03:25:02;;;;;;;1.95;0.38;;;6.50;99.90;;;;;;4990533;28;20201;-91
2024/01/23 03:27:28;;;;;;;1.80;0.43;;;6.60;99.90;;;;;;4990782;28;20207;-91
2024/01/23 03:29:54;;;;;;;6.87;1.23;;;;;;;;;;4996583;28;20856;-90
2024/01/23 03:32:20;;;;;;;3.50;0.67;;;;;;;;;;4994291;28;20215;-92
2024/01/23 03:34:45;;;;;;;24.33;1.77;;;;;;;;;;4995512;28;20439;-92
2024/01/23 03:37:16;;;;;;;2.23;0.90;;;6.80;99.90;;;;;;4985134;28;21209;-91
2024/01/23 03:39:42;;;;;;;1.73;1.15;;;;;;;;;;4994149;28;20453;-92
2024/01/23 03:42:08;;;;;;;9.00;1.13;;;;;;;;;;4979615;28;20257;-91
2024/01/23 03:44:34;;;;;;;10.77;1.10;;;;;;;;;;4976397;28;20442;-90
2024/01/23 03:47:00;;;;;;;4.50;0.87;;;;;;;;;;4980132;28;20450;-91
2024/01/23 03:49:27;;;;;;;2.27;1.63;;;;;;;;;;4980541;28;20445;-92
2024/01/23 03:51:53;;;;;;;3.25;1.15;;;;;;;;;;4994147;28;20477;-91
2024/01/23 03:54:19;;;;;;;2.35;0.80;;;;;;;;;;4986711;28;20211;-91
2024/01/23 03:56:45;;;;;;;3.00;0.85;;;;;;;;;;4981094;28;20191;-91
2024/01/23 03:59:11;;;;;;;3.78;3.40;;;;;;;;;;4985360;28;20199;-91
2024/01/23 04:01:37;;;;;;;1.73;0.77;;;;;;;;;;4999000;28;20203;-92
2024/01/23 04:04:03;;;;;;;4.97;1.10;;;;;;;;;;4997459;28;20183;-92
2024/01/23 04:06:29;;;;;;;0.40;0.30;;;;;;;;;;5005841;28;20438;-91
2024/01/23 04:08:55;;;;;;;8.73;1.67;;;;;;;;;;4977910;28;20904;-91
2024/01/23 04:11:21;;;;;;;5.55;0.98;;;;;;;;;;4977865;28;21039;-91
2024/01/23 04:13:47;;;;;;;1.77;1.43;;;6.60;99.90;;;;;;4975682;28;20217;-91
2024/01/23 04:16:13;;;;;;;1.20;0.80;;;;;;;;;;5000785;28;20442;-92
2024/01/23 04:18:39;;;;;;;3.33;0.60;;;;;;;;;;4995921;28;20298;-92
2024/01/23 04:21:08;;;;;;;4.30;3.63;;;6.60;99.90;;;;;;4998263;28;20995;-92
2024/01/23 04:23:33;;;;;;;1.58;0.75;;;;;;;;;;4997780;28;20983;-91
2024/01/23 04:25:59;;;;;;;3.30;1.10;;;;;;;;;;4980541;28;20183;-92
2024/01/23 04:28:26;;;;;;;0.40;0.30;;;;;;;;;;4981970;28;20441;-92
2024/01/23 04:30:52;;;;;;;12.02;2.20;;;6.50;99.90;;;;;;4984596;28;20517;-91
2024/01/23 04:33:18;;;;;;;0.80;0.80;;;;;;;;;;4991494;28;20302;-91
2024/01/23 04:35:44;;;;;;;2.92;0.93;;;;;;;;;;4977963;28;20245;-92
2024/01/23 04:38:10;;;;;;;4.33;1.17;;;;;;;;;;4975844;28;20183;-91
2024/01/23 04:40:36;;;;;;;21.80;1.20;;;;;;;;;;4980358;28;20441;-91
2024/01/23 04:43:02;;;;;;;5.33;1.40;;;;;;;;;;4974062;28;20873;-92
2024/01/23 04:45:28;;;;;;;5.65;1.30;;;;;;;;;;4978840;28;20448;-91
2024/01/23 04:47:54;;;;;;;4.53;1.03;;;;;;;;;;4976143;28;20215;-93
2024/01/23 04:50:20;;;;;;;3.93;0.50;;;;;;;;;;4974234;28;20477;-92
2024/01/23 04:52:46;;;;;;;0.97;0.60;;;;;;;;;;4973793;28;20474;-91
2024/01/23 04:55:12;;;;;;;3.70;1.07;;;;;;;;;;4978615;28;20438;-91
2024/01/23 04:57:38;;;;;;;0.40;0.30;;;;;;;;;;4973472;28;20848;-90
2024/01/23 05:00:05;;;;;;;0.80;0.80;;;6.60;99.90;;;;;;4997358;28;20542;-91
2024/01/23 05:02:31;;;;;;;3.90;0.88;;;;;;;;;;4995317;28;20450;-90
2024/01/23 05:04:57;;;;;;;3.90;1.50;;;6.60;99.90;;;;;;4982417;28;21098;-91
2024/01/23 05:07:23;;;;;;;1.00;0.93;;;;;;;;;;4995667;28;20255;-92
2024/01/23 05:09:49;;;;;;;0.63;0.63;;;;;;;;;;4982602;28;20207;-91
2024/01/23 05:12:15;;;;;;;0.50;0.50;;;;;;;;;;4985446;28;20462;-91
2024/01/23 05:14:41;;;;;;;0.70;0.70;;;;;;;;;;4991350;28;20537;-91
2024/01/23 05:17:07;;;;;;;1.20;0.60;;;;;;;;;;5008995;28;20434;-91
2024/01/23 05:19:33;;;;;;;6.63;1.10;;;;;;;;;;4985597;28;20195;-90
2024/01/23 05:21:59;;;;;;;1.02;0.60;;;;;;;;;;4982865;28;20501;-91
2024/01/23 05:24:27;;;;;;;4.80;1.27;;;;;;;;;;4997043;28;20218;-92
2024/01/23 05:26:52;;;;;;;1.02;0.55;;;6.50;99.90;;;;;;4998311;28;20442;-91
2024/01/23 05:29:18;;;;;;;5.70;0.80;;;;;;;;;;4980679;28;20191;-91
2024/01/23 05:31:45;;;;;;;5.40;0.50;;;;;;;;;;4979868;28;21396;-90
2024/01/23 05:34:11;;;;;;;5.28;1.10;;;;;;;;;;4992955;28;20470;-92
2024/01/23 05:36:36;;;;;;;3.90;0.60;;;;;;;;;;4982998;28;20197;-91
2024/01/23 05:39:04;;;;;;;0.40;0.30;;;;;;;;;;4988101;28;20522;-89
2024/01/23 05:41:30;;;;;;;3.50;1.20;;;;;;;;;;4969028;28;20528;-90
2024/01/23 05:43:57;;;;;;;0.80;0.80;;;;;;;;;;4972988;28;20195;-89
2024/01/23 05:46:22;;;;;;;0.75;0.75;;;6.10;99.90;;;;;;4986209;28;20465;-90
2024/01/23 05:48:48;;;;;;;8.47;0.73;;;;;;;;;;4973811;28;20190;-89
2024/01/23 05:51:14;;;;;;;0.60;0.60;;;;;;;;;;4971229;28;20211;-86
2024/01/23 05:53:40;;;;;;;5.17;0.50;;;6.20;99.90;;;;;;4996821;28;20856;-91
2024/01/23 05:56:06;;;;;;;0.40;0.40;;;6.30;99.90;;;;;;4992745;28;20441;-89
2024/01/23 05:58:32;;;;;;;8.23;0.80;;;;;;;;;;4992483;28;20237;-90
2024/01/23 06:00:58;;;;;;;2.83;0.73;;;;;;;;;;4979699;28;20198;-91
2024/01/23 06:03:23;;;;;;;17.90;1.13;;;;;;;;;;4986213;28;20490;-90
2024/01/23 06:05:49;;;;;;;0.80;0.33;;;;;;;;;;4968811;28;20469;-91
2024/01/23 06:08:16;;;;;;;1.93;0.70;;;6.10;99.90;;;;;;4989266;28;20673;-91
2024/01/23 06:10:41;;;;;;;0.77;0.52;;;6.00;99.90;;;;;;4988030;28;20468;-92
2024/01/23 06:13:07;;;;;;;1.87;1.13;;;;;;;;;;4985806;28;20748;-90
2024/01/23 06:15:33;;;;;;;4.10;1.33;;;;;;;;;;4987109;28;20190;-91
2024/01/23 06:17:59;;;;;;;0.40;0.33;;;;;;;;;;4973065;28;20433;-91
2024/01/23 06:20:25;;;;;;;1.70;0.60;;;;;;;;;;4988516;28;20557;-90
2024/01/23 06:22:51;;;;;;;0.63;0.57;;;5.90;99.90;;;;;;4987093;28;20500;-91
2024/01/23 06:25:17;;;;;;;1.43;0.70;;;;;;;;;;4984844;28;20446;-89
2024/01/23 06:27:43;;;;;;;7.30;1.30;;;5.70;99.90;;;;;;4985483;28;20214;-90
2024/01/23 06:30:11;;;;;;;2.25;0.40;;;5.70;99.90;;;;;;5006836;28;20448;-92
2024/01/23 06:32:38;;;;;;;3.28;0.43;;;5.70;99.90;;;;;;4991013;28;20203;-91
2024/01/23 06:35:04;;;;;;;0.32;0.30;;;5.70;99.90;;;;;;4984679;28;20195;-90
2024/01/23 06:37:30;;;;;;;2.90;1.30;;;5.70;99.90;;;;;;4984800;28;20325;-91
2024/01/23 06:39:56;;;;;;;13.07;1.27;;;;;;;;;;4981697;28;20282;-91
2024/01/23 06:42:22;;;;;;;1.27;1.03;;;;;;;;;;4966036;28;20634;-91
2024/01/23 06:44:48;;;;;;;6.10;1.33;;;;;;;;;;4975020;28;20838;-91
2024/01/23 06:47:13;;;;;;;8.43;0.90;;;5.70;99.90;;;;;;4969974;28;20446;-90
2024/01/23 06:49:40;;;;;;;0.60;0.60;;;5.50;99.90;;;;;;5002654;28;20438;-92
2024/01/23 06:52:07;;;;;;;0.40;0.30;;;5.50;99.90;;;;;;4988583;28;20271;-91
2024/01/23 06:54:33;;;;;;;1.95;1.50;;;5.50;99.90;;;;;;4986128;28;20300;-91
2024/01/23 06:57:00;;;;;;;6.47;0.97;;;5.70;99.90;;;;;;4968304;28;20475;-92
2024/01/23 06:59:26;;;;;;;0.60;0.60;;;5.70;99.90;;;;;;4986366;28;20438;-91
2024/01/23 07:02:00;;;;;;;1.05;0.95;;;5.60;99.90;;;;;;4987367;28;20203;-93
2024/01/23 07:04:25;;;;;;;0.50;0.40;;;8.90;99.90;;;;;;4972217;28;20281;-91
2024/01/23 07:06:52;;;;;;;4.10;1.13;;;5.50;99.90;;;;;;4987118;28;20279;-92
2024/01/23 07:09:17;;;;;;;3.67;0.75;;;5.40;99.90;;;;;;4993198;28;20269;-92
2024/01/23 07:11:49;;;;;;;0.30;0.30;;;;;;;;;;4991744;28;20240;-91
2024/01/23 07:14:16;;;;;;;1.40;0.65;;;5.30;99.90;;;;;;4982487;28;20586;-92
2024/01/23 07:16:42;;;;;;;0.52;0.52;;;;;;;;;;4975639;28;20281;-90
2024/01/23 07:19:07;;;;;;;5.87;0.80;;;;;;;;;;4975597;28;20373;-92
2024/01/23 07:21:33;;;;;;;4.30;0.80;;;;;;;;;;4977216;28;20596;-91
2024/01/23 07:23:59;;;;;;;3.80;0.60;;;;;;;;;;4976848;28;20434;-92
2024/01/23 07:26:25;;;;;;;0.40;0.30;;;;;;;;;;4998759;28;20453;-92
2024/01/23 07:28:54;;;;;;;4.37;1.80;;;6.00;99.90;;;;;;4978091;28;20446;-92
2024/01/23 07:31:20;;;;;;;5.18;0.73;;;;;;;;;;4992752;28;20515;-92
2024/01/23 07:33:46;;;;;;;5.47;1.88;;;;;;;;;;4975258;28;20214;-91
2024/01/23 07:36:12;;;;;;;1.75;0.55;;;;;;;;;;4992191;28;20217;-92
2024/01/23 07:38:38;;;;;;;7.30;1.10;;;;;;;;;;4981689;28;20198;-92
2024/01/23 07:41:04;;;;;;;2.22;0.47;;;;;;;;;;5004960;28;20450;-93
2024/01/23 07:43:30;;;;;;;2.53;1.30;;;;;;;;;;5004766;28;20262;-92
2024/01/23 07:45:56;;;;;;;0.73;0.70;;;;;;;;;;4979438;28;20430;-92
2024/01/23 07:48:23;;;;;;;3.13;0.80;;;6.90;99.90;;;;;;4983504;28;20214;-92
2024/01/23 07:50:49;;;;;;;2.05;0.73;;;;;;;;;;4992178;28;20446;-91
2024/01/23 07:53:15;;;;;;;8.05;2.00;;;;;;;;;;4975465;28;20222;-93
2024/01/23 07:55:41;;;;;;;3.80;1.03;;;7.30;99.90;;;;;;4974851;28;20209;-92
2024/01/23 07:58:12;;;;;;;3.00;1.60;;;;;;;;;;4991098;28;20445;-92
2024/01/23 08:00:38;;;;;;;0.50;0.43;;;;;;;;;;4977364;28;20207;-93
2024/01/23 08:03:04;;;;;;;2.15;0.70;;;;;;;;;;4983303;28;20171;-92
2024/01/23 08:05:30;;;;;;;8.98;0.98;;;;;;;;;;4998597;28;20294;-92
2024/01/23 08:07:57;;;;;;;2.50;0.73;;;8.10;99.90;;;;;;4977489;28;20278;-92
2024/01/23 08:10:24;;;;;;;0.80;0.80;;;;;;;;;;4991195;28;20473;-91
2024/01/23 08:12:50;;;;;;;2.67;0.63;;;;;;;;;;4977012;28;20909;-91
2024/01/23 08:15:18;;;;;;;3.80;0.50;;;;;;;;;;4991488;28;20197;-92
2024/01/23 08:17:44;;;;;;;0.40;0.40;;;;;;;;;;4991687;28;20182;-92
2024/01/23 08:20:11;;;;;;;1.65;0.95;;;;;;;;;;4978347;28;20194;-92
2024/01/23 08:22:37;;;;;;;0.52;0.50;;;;;;;;;;4996561;28;20226;-92
2024/01/23 08:25:03;;;;;;;0.40;0.40;;;;;;;;;;4979363;28;20195;-92
2024/01/23 08:27:29;;;;;;;2.40;0.93;;;;;;;;;;4978363;28;20199;-92
2024/01/23 08:29:55;;;;;;;0.40;0.40;;;;;;;;;;4987599;28;20226;-92
2024/01/23 08:32:25;;;;;;;2.00;0.97;;;7.90;99.90;;;;;;4977906;28;20469;-93
2024/01/23 08:34:51;;;;;;;1.30;0.63;;;;;;;;;;4976982;28;20499;-91
2024/01/23 08:37:17;;;;;;;8.88;0.90;;;;;;;;;;4977758;28;20198;-91
2024/01/23 08:39:43;;;;;;;3.47;0.87;;;;;;;;;;4974914;28;20698;-90
2024/01/23 08:42:09;;;;;;;1.17;0.53;;;;;;;;;;4990667;28;20831;-91
2024/01/23 08:44:40;;;;;;;3.03;1.17;;;6.90;99.90;;;;;;4976712;28;21127;-91
2024/01/23 08:47:05;;;;;;;3.55;0.70;;;6.80;99.90;;;;;;4994586;28;20430;-91
2024/01/23 08:49:31;;;;;;;3.60;1.20;;;;;;;;;;4994267;28;20183;-91
2024/01/23 08:51:57;;;;;;;2.53;0.90;;;;;;;;;;4980675;28;20203;-93
2024/01/23 08:54:24;;;;;;;2.88;1.23;;;;;;;;;;4997404;28;20472;-93
2024/01/23 08:56:50;;;;;;;3.80;1.07;;;;;;;;;;4992784;28;20576;-89
2024/01/23 08:59:16;;;;;;;5.40;1.10;;;;;;;;;;4970432;28;20496;-89
2024/01/23 09:01:42;;;;;;;0.40;0.30;;;;;;;;;;4973107;28;20208;-87
2024/01/23 09:04:08;;;;;;;5.40;1.93;;;;;;;;;;4984617;28;20825;-89
2024/01/23 09:06:34;;;;;;;1.40;0.60;;;;;;;;;;4979801;28;20550;-88
2024/01/23 09:09:00;;;;;;;7.43;1.17;;;;;;;;;;4973579;28;20954;-88
2024/01/23 09:11:26;;;;;;;0.77;0.77;;;;;;;;;;4967623;28;20284;-89
2024/01/23 09:13:52;;;;;;;6.70;0.63;;;;;;;;;;4984057;28;20568;-88
2024/01/23 09:16:18;;;;;;;3.90;0.90;;;7.00;99.90;;;;;;4972415;28;20549;-88
2024/01/23 09:18:48;;;;;;;2.20;1.47;;;;;;;;;;4996009;28;20466;-88
2024/01/23 09:21:16;;;;;;;8.15;0.80;;;7.10;99.90;;;;;;4983077;28;20220;-88
2024/01/23 09:23:42;;;;;;;11.57;1.45;;;7.20;99.90;;;;;;4987032;28;20230;-90
2024/01/23 09:26:10;;;;;;;8.43;1.10;;;7.40;99.90;;;;;;4986701;28;20175;-87
2024/01/23 09:28:36;;;;;;;12.75;0.93;;;7.30;99.90;;;;;;4983791;28;20187;-89
2024/01/23 09:31:01;;;;;;;1.30;1.07;;;7.30;99.90;;;;;;4992714;28;20556;-89
2024/01/23 09:33:27;;;;;;;5.67;0.70;;;;;;;;;;5000720;28;20290;-93
2024/01/23 09:35:53;;;;;;;7.80;1.20;;;;;;;;;;4988833;28;20198;-91
2024/01/23 09:38:19;;;;;;;3.17;1.30;;;;;;;;;;4993863;28;20436;-90
2024/01/23 09:40:49;;;;;;;6.70;1.60;;;7.20;99.90;;;;;;4977356;28;20988;-91
2024/01/23 09:43:19;;;;;;;7.53;0.80;;;7.30;99.90;;;;;;4985330;28;20434;-91
2024/01/23 09:45:47;;;;;;;2.90;1.45;;;7.40;99.90;;;;;;4974323;28;20183;-89
2024/01/23 09:48:13;;;;;;;11.75;1.05;;;;;;;;;;4983656;28;20270;-89
2024/01/23 09:50:41;;;;;;;11.05;1.63;;;7.70;99.90;;;;;;4965080;28;20222;-88
2024/01/23 09:53:09;;;;;;;5.25;0.88;;;7.70;99.90;;;;;;4966674;28;20297;-89
2024/01/23 09:55:35;;;;;;;2.50;1.42;;;7.70;99.90;;;;;;4986464;28;20763;-89
2024/01/23 09:58:02;;;;;;;1.48;0.68;;;7.90;99.90;;;;;;4985480;28;20269;-88
2024/01/23 10:00:28;;;;;;;12.13;1.00;;;;;;;;;;4982730;28;20530;-89
2024/01/23 10:02:55;;;;;;;1.23;0.60;;;8.20;99.90;;;;;;4986279;28;20257;-89
2024/01/23 10:05:22;;;;;;;5.75;1.15;;;8.10;99.90;;;;;;4987137;28;20442;-88
2024/01/23 10:07:48;;;;;;;0.88;0.43;;;;;;;;;;4993732;28;20197;-88
2024/01/23 10:10:16;;;;;;;2.92;1.23;;;8.00;99.90;;;;;;4985373;28;20198;-89
2024/01/23 10:12:46;;;;;;;0.88;0.60;;;8.10;99.90;;;;;;4994048;28;20199;-89
2024/01/23 10:15:14;;;;;;;2.50;1.25;;;8.30;99.90;;;;;;4991373;28;20222;-89
2024/01/23 10:17:40;;;;;;;11.25;1.27;;;8.30;99.90;;;;;;4968094;28;20194;-89
2024/01/23 10:20:08;;;;;;;11.43;1.30;;;8.10;99.90;;;;;;4984949;28;20183;-91
2024/01/23 10:22:34;;;;;;;7.03;1.05;;;;;;;;;;4979613;28;20196;-89
2024/01/23 10:25:00;;;;;;;8.03;1.20;;;;;;;;;;4984554;28;20190;-87
2024/01/23 10:27:30;;;;;;;8.83;1.53;;;7.70;99.90;;;;;;4975501;28;20438;-89
2024/01/23 10:29:56;;;;;;;1.35;1.05;;;;;;;;;;4984005;28;20442;-89
2024/01/23 10:32:23;;;;;;;6.03;1.17;;;7.60;99.90;;;;;;4979780;28;20206;-90
2024/01/23 10:34:53;;;;;;;0.98;0.88;;;7.70;99.90;;;;;;5009447;28;20477;-92
2024/01/23 10:37:23;;;;;;;1.23;1.10;;;7.70;99.90;;;;;;4994623;28;20206;-92
2024/01/23 10:39:52;;;;;;;2.42;0.95;;;7.90;99.90;;;;;;4974330;28;20266;-92
2024/01/23 10:42:19;;;;;;;1.52;1.17;;;8.00;99.90;;;;;;4992247;28;20246;-89
2024/01/23 10:44:47;;;;;;;6.32;0.75;;;8.00;99.90;;;;;;4992876;28;20190;-90
2024/01/23 10:47:15;;;;;;;1.63;0.93;;;;;;;;;;4992735;28;20895;-92
2024/01/23 10:49:41;;;;;;;5.43;0.90;;;;;;;;;;4975134;28;20190;-90
2024/01/23 10:52:09;;;;;;;14.05;1.40;;;7.80;99.90;;;;;;4976986;28;20213;-88
2024/01/23 10:54:42;;;;;;;6.90;1.00;;;7.80;99.90;;;;;;4990865;28;20849;-90
2024/01/23 10:57:13;;;;;;;0.90;0.50;;;8.00;99.90;;;;;;4990165;28;20291;-89
2024/01/23 10:59:39;;;;;;;2.75;0.75;;;;;;;;;;4991049;28;20179;-91
2024/01/23 11:02:05;;;;;;;3.83;1.53;;;8.40;99.90;;;;;;4976371;28;20274;-90
2024/01/23 11:04:32;;;;;;;4.45;0.95;;;;;;;;;;4992745;28;22049;-92
2024/01/23 11:07:09;;;;;;;9.30;1.52;;;8.30;99.90;;;;;;4992374;28;20175;-92
2024/01/23 11:10:00;;;;;;;2.72;2.10;;;8.40;99.90;;;;;;4976063;28;20721;-89
2024/01/23 11:12:57;;;;;;;1.25;1.05;;;8.30;99.90;;;;;;4994645;28;20217;-93
2024/01/23 11:15:26;;;;;;;6.18;0.80;;;8.30;99.90;;;;;;4986959;28;20195;-89
2024/01/23 11:17:53;;;;;;;2.35;1.25;;;9.60;99.90;;;;;;4993478;28;20181;-89
2024/01/23 11:20:18;;;;;;;0.65;0.50;;;8.60;99.90;;;;;;4989717;28;20191;-92
2024/01/23 11:22:44;;;;;;;1.97;1.20;;;;;;;;;;5002912;28;20213;-90
2024/01/23 11:25:10;;;;;;;7.50;0.50;;;;;;;;;;4980400;28;20199;-89
2024/01/23 11:27:38;;;;;;;5.10;0.82;;;8.70;99.90;;;;;;4979495;28;20566;-93
2024/01/23 11:30:08;;;;;;;9.50;0.88;;;8.60;99.90;;;;;;4993674;28;20275;-90
2024/01/23 11:32:34;;;;;;;7.07;0.60;;;;;;;;;;4993876;28;20603;-90
2024/01/23 11:35:11;;;;;;;11.30;0.87;;;8.20;99.90;;;;;;4977360;28;20287;-90
2024/01/23 11:37:51;;;;;;;1.63;1.15;;;8.20;99.90;;;;;;4978540;28;20524;-90
2024/01/23 11:40:37;;;;;;;4.60;0.90;;;8.60;99.90;;;;;;4991300;28;20195;-90
2024/01/23 11:43:07;;;;;;;6.60;0.65;;;8.50;99.90;;;;;;4990481;28;20253;-90
2024/01/23 11:45:37;;;;;;;2.00;1.17;;;8.60;99.90;;;;;;4991992;28;20674;-90
2024/01/23 11:48:06;;;;;;;2.10;1.13;;;8.60;99.90;;;;;;4978836;28;20192;-90
2024/01/23 11:50:36;;;;;;;2.40;1.00;;;8.60;99.90;;;;;;5009491;28;20179;-89
2024/01/23 11:53:02;;;;;;;1.50;0.30;;;;;;;;;;4993918;28;20270;-92
2024/01/23 11:55:28;;;;;;;3.60;1.50;;;;;;;;;;4979512;28;20195;-90
2024/01/23 11:57:56;;;;;;;0.98;0.85;;;8.90;99.90;;;;;;4997666;28;20370;-90
2024/01/23 12:00:22;;;;;;;4.53;0.82;;;;;;;;;;4995146;28;20282;-90
2024/01/23 12:02:49;;;;;;;3.63;1.05;;;;;;;;;;4984445;28;20218;-92
2024/01/23 12:05:15;;;;;;;1.55;1.05;;;;;;;;;;4978463;28;20183;-92
2024/01/23 12:07:41;;;;;;;6.20;0.77;;;;;;;;;;4995640;28;20191;-90
2024/01/23 12:10:08;;;;;;;0.50;0.50;;;;;;;;;;4977872;28;20202;-92
2024/01/23 12:12:34;;;;;;;3.42;1.15;;;;;;;;;;4982255;28;20207;-92
2024/01/23 12:15:04;;;;;;;1.13;0.60;;;10.20;99.90;;;;;;4995799;28;20981;-89
2024/01/23 12:17:30;;;;;;;4.38;1.13;;;;;;;;;;4998114;28;20453;-92
2024/01/23 12:19:56;;;;;;;3.30;0.80;;;;;;;;;;4995329;28;20592;-91
2024/01/23 12:22:22;;;;;;;0.88;0.65;;;;;;;;;;4976509;28;20528;-90
2024/01/23 12:24:48;;;;;;;2.25;0.88;;;9.90;99.90;;;;;;4990482;28;20195;-91
2024/01/23 12:27:17;;;;;;;11.30;1.00;;;;;;;;;;4993479;28;20480;-92
2024/01/23 12:29:44;;;;;;;4.63;1.65;;;9.00;99.90;;;;;;4975697;28;20191;-92
2024/01/23 12:32:11;;;;;;;3.05;0.90;;;;;;;;;;4997313;28;20219;-90
2024/01/23 12:34:36;;;;;;;6.43;0.80;;;;;;;;;;5013357;28;20203;-92
2024/01/23 12:37:02;;;;;;;1.03;0.80;;;;;;;;;;4982492;28;20199;-90
2024/01/23 12:39:29;;;;;;;1.42;0.60;;;;;;;;;;4993553;28;20513;-91
2024/01/23 12:41:58;;;;;;;2.28;1.00;;;8.70;99.90;;;;;;4985075;28;20252;-91
2024/01/23 12:44:24;;;;;;;1.73;1.35;;;8.60;99.90;;;;;;4991562;28;20198;-90
2024/01/23 12:46:50;;;;;;;1.00;1.00;;;;;;;;;;4990699;28;20179;-92
2024/01/23 12:49:20;;;;;;;13.48;1.83;;;8.60;99.90;;;;;;4978639;28;20197;-93
2024/01/23 12:51:49;;;;;;;0.60;0.45;;;8.70;99.90;;;;;;4993443;28;20353;-91
2024/01/23 12:54:15;;;;;;;7.40;0.77;;;;;;;;;;4992086;28;21095;-92
2024/01/23 12:56:41;;;;;;;1.48;0.77;;;;;;;;;;4974716;28;20183;-92
2024/01/23 12:59:08;;;;;;;1.40;0.68;;;9.20;99.90;;;;;;4982582;28;20183;-91
2024/01/23 13:01:34;;;;;;;4.80;2.08;;;;;;;;;;4974940;28;20793;-91
2024/01/23 13:04:00;;;;;;;11.00;1.27;;;;;;;;;;4979855;28;20186;-92
2024/01/23 13:06:26;;;;;;;11.05;1.10;;;;;;;;;;4999830;28;20452;-92
2024/01/23 13:08:52;;;;;;;3.20;1.42;;;;;;;;;;4999806;28;20191;-92
2024/01/23 13:11:18;;;;;;;2.40;0.53;;;;;;;;;;4976213;28;20222;-91
2024/01/23 13:13:44;;;;;;;3.23;1.13;;;8.90;99.90;;;;;;4984094;28;20465;-89
2024/01/23 13:16:12;;;;;;;16.23;1.07;;;8.50;99.90;;;;;;4987905;28;20435;-89
2024/01/23 13:18:41;;;;;;;7.88;1.52;;;;;;;;;;4969130;28;20905;-88
2024/01/23 13:21:07;;;;;;;4.13;0.80;;;;;;;;;;4984634;28;20187;-89
2024/01/23 13:23:33;;;;;;;1.33;1.23;;;;;;;;;;4987234;28;20191;-89
2024/01/23 13:25:58;;;;;;;2.10;0.80;;;8.10;99.90;;;;;;4974507;28;20446;-88
2024/01/23 13:28:24;;;;;;;5.93;1.03;;;;;;;;;;4979920;28;20561;-89
2024/01/23 13:30:50;;;;;;;8.63;1.13;;;;;;;;;;4975015;28;20249;-90
2024/01/23 13:33:17;;;;;;;5.30;0.90;;;;;;;;;;4975928;28;20525;-90
2024/01/23 13:35:43;;;;;;;2.20;0.85;;;;;;;;;;4982533;28;20449;-88
2024/01/23 13:38:10;;;;;;;0.70;0.55;;;;;;;;;;4982011;28;20179;-90
2024/01/23 13:40:36;;;;;;;4.85;0.75;;;;;;;;;;4980678;28;20183;-90
2024/01/23 13:43:02;;;;;;;10.48;1.45;;;8.70;99.90;;;;;;4982775;28;20179;-89
2024/01/23 13:45:28;;;;;;;0.80;0.50;;;;;;;;;;4984260;28;20244;-89
2024/01/23 13:47:55;;;;;;;11.83;1.20;;;;;;;;;;5005288;28;20183;-88
2024/01/23 13:50:21;;;;;;;8.40;1.60;;;8.60;99.90;;;;;;4968556;28;20513;-90
2024/01/23 13:52:50;;;;;;;3.07;0.87;;;8.40;99.90;;;;;;4984203;28;20334;-89
2024/01/23 13:55:20;;;;;;;5.47;0.73;;;8.30;99.90;;;;;;4983557;28;21024;-90
2024/01/23 13:57:46;;;;;;;1.98;0.80;;;;;;;;;;4983608;28;20189;-89
2024/01/23 14:00:12;;;;;;;1.20;0.60;;;8.20;99.90;;;;;;4985230;28;20187;-90
2024/01/23 14:02:38;;;;;;;1.52;1.23;;;;;;;;;;4984651;28;21028;-90